Abu Dhabi International Airport
OMAA : now visible

Airfield :











YOU CAN JOIN US ON...

 
LOGIN :

Register | Disclaimer

   EN    FR    IT 

 









Legend :    VFR   Marginal VFR   IFR   Intensive IFR   Very Intensive IFR
Visi :
Ceiling :
>= 8 km
>= 3000ft
5 to 8 km
1000 to 3000 ft
1500m to 5 km
500 to 1000 ft
800 to 1500m
200 to 500 ft
< 800m
< 200 ft
Symbols :   Thunderstorms  Fog  Heavy snow  Heavy precipitations  Wind > 20 kt







- Airport Elevation : 88 ft
- IATA code : AUH


OMAA - Abu Dhabi International

CURRENT METAR :
  • 170800Z 25008KT 220V290 CAVOK 45/16 Q0999 BECMG 31011KT

EXPIRED METARs :
  • 170700Z 25004KT 150V290 CAVOK 43/12 Q0999 BECMG 31011KT
  • 170600Z 24006KT 190V290 8000 NSC 40/16 Q1000 BECMG 30011KT

TAF TAF OMAA
Valid from the 17 at 06:00 until the 18 at 12:00 UTC


170500Z 1706/1812 24006KT 8000 NSC
BECMG 1706/1708 31014KT
BECMG 1717/1719 23005KT
PROB40 1722/1803 4000 HZ
PROB30
TEMPO 1801/1803 1800 BR
BECMG 1804/1806 30014KT
OMAE FIR / Asia



MET'MAP, your aeronautical weather chart ! - Copyright ORBIFLY December 2007 - Disclaimer

ORBIFLY MET'MAP TEAM :

Programming & Development : Alexandra Zaïnal
Concept & Development : Baudouin d'Aumeries
Co-Development & Prog : Marc-Olivier Méhu
Technical & hardware support : Manuel Goepfert

Contact : metmap@orbifly.com




SOURCES & CREDITS :

   NOAA       Earth
Advisory